Time;durP1;ratioP1;P1;durP2;ratioP2;P2;SDS_P1;SDS_P2;PMS_P1;PMS_P2;Temp;Humidity;BMP_temperature;BMP_pressure;BME280_temperature;BME280_humidity;BME280_pressure;Samples;Min_cycle;Max_cycle;Signal;HPM_P1;HPM_P2
2021/04/30 00:00:15;;;;;;;9.60;8.60;;;;;;;;;;5062410;28;20208;-70
2021/04/30 00:02:41;;;;;;;10.33;9.33;;;;;;;;;;5057040;28;20201;-69
2021/04/30 00:05:06;;;;;;;10.80;9.80;;;;;;;;;;5064380;28;20635;-71
2021/04/30 00:07:34;;;;;;;11.33;10.23;;;;;;;;;;5054322;28;20186;-70
2021/04/30 00:09:59;;;;;;;11.33;10.23;;;;;;;;;;5068845;28;20187;-71
2021/04/30 00:12:24;;;;;;;10.80;9.70;;;;;;;;;;5065226;28;20196;-71
2021/04/30 00:14:50;;;;;;;11.80;10.60;;;;;;;;;;5066211;28;20185;-71
2021/04/30 00:17:17;;;;;;;12.27;11.07;;;;;;;;;;5061832;28;20189;-71
2021/04/30 00:19:42;;;;;;;12.17;10.80;;;;;;;;;;5064029;28;20689;-69
2021/04/30 00:22:08;;;;;;;14.27;12.70;;;;;;;;;;5050202;28;20204;-71
2021/04/30 00:24:33;;;;;;;13.63;12.33;;;;;;;;;;5064059;28;20243;-71
2021/04/30 00:26:58;;;;;;;14.03;12.57;;;;;;;;;;5068377;28;20185;-70
2021/04/30 00:29:23;;;;;;;14.23;12.80;;;;;;;;;;5069169;28;20272;-71
2021/04/30 00:31:48;;;;;;;14.93;13.47;;;;;;;;;;5062667;28;20656;-71
2021/04/30 00:34:14;;;;;;;12.33;11.13;;;;;;;;;;5064291;28;20672;-72
2021/04/30 00:36:39;;;;;;;14.50;12.53;;;;;;;;;;5059503;28;20268;-72
2021/04/30 00:39:05;;;;;;;14.77;13.30;;;;;;;;;;5056883;28;20661;-70
2021/04/30 00:41:30;;;;;;;13.63;12.23;;;;;;;;;;5062666;28;20182;-70
2021/04/30 00:43:57;;;;;;;13.67;12.30;;;;;;;;;;5061303;28;20201;-71
2021/04/30 00:46:22;;;;;;;13.33;11.93;;;;;;;;;;5047305;28;20208;-70
2021/04/30 00:48:47;;;;;;;13.63;11.93;;;;;;;;;;5062841;28;20185;-70
2021/04/30 00:51:12;;;;;;;13.40;12.10;;;;;;;;;;5062316;28;20212;-71
2021/04/30 00:53:38;;;;;;;15.50;14.03;;;;;;;;;;5065208;28;20255;-70
2021/04/30 00:56:03;;;;;;;13.67;12.33;;;;;;;;;;5061128;28;20560;-71
2021/04/30 00:58:28;;;;;;;14.57;12.83;;;;;;;;;;5059037;28;20182;-70
2021/04/30 01:00:53;;;;;;;13.23;11.93;;;;;;;;;;5061744;28;20208;-70
2021/04/30 01:03:19;;;;;;;15.77;12.67;;;;;;;;;;5045140;28;20202;-71
2021/04/30 01:05:44;;;;;;;14.03;12.53;;;;;;;;;;5069156;28;20169;-71
2021/04/30 01:08:09;;;;;;;13.20;11.87;;;;;;;;;;5063175;28;20591;-70
2021/04/30 01:10:35;;;;;;;12.57;11.37;;;;;;;;;;5065262;28;20614;-71
2021/04/30 01:13:00;;;;;;;13.10;11.80;;;;;;;;;;5064820;28;20307;-71
2021/04/30 01:15:25;;;;;;;12.80;11.60;;;;;;;;;;5064671;28;20177;-72
2021/04/30 01:17:51;;;;;;;13.33;11.97;;;;;;;;;;5063117;28;20181;-71
2021/04/30 01:20:20;;;;;;;13.00;11.80;;;;;;;;;;5047363;28;20210;-70
2021/04/30 01:22:53;;;;;;;12.03;10.90;;;;;;;;;;5040498;28;20660;-71
2021/04/30 01:25:20;;;;;;;12.90;11.60;;;;;;;;;;5064397;28;20193;-71
2021/04/30 01:27:45;;;;;;;12.70;11.20;;;;;;;;;;5064344;28;20230;-71
2021/04/30 01:30:10;;;;;;;13.00;10.97;;;;;;;;;;5059322;28;20186;-70
2021/04/30 01:32:36;;;;;;;11.77;10.70;;;;;;;;;;5063480;28;20184;-71
2021/04/30 01:35:01;;;;;;;12.03;10.93;;;;;;;;;;5047629;28;20215;-71
2021/04/30 01:37:26;;;;;;;12.23;11.00;;;;;;;;;;5065786;28;20268;-72
2021/04/30 01:39:52;;;;;;;11.70;10.50;;;;;;;;;;5045969;28;20582;-72
2021/04/30 01:42:17;;;;;;;12.33;11.13;;;;;;;;;;5062106;28;20185;-71
2021/04/30 01:44:42;;;;;;;12.50;11.20;;;;;;;;;;5051500;28;20201;-70
2021/04/30 01:47:08;;;;;;;12.03;10.83;;;;;;;;;;5067084;28;20181;-71
2021/04/30 01:49:33;;;;;;;12.47;11.27;;;;;;;;;;5061376;28;20178;-71
2021/04/30 01:51:58;;;;;;;12.17;10.97;;;;;;;;;;5061003;28;20597;-70
2021/04/30 01:54:23;;;;;;;11.60;10.43;;;;;;;;;;5067572;28;20209;-70
2021/04/30 01:56:50;;;;;;;12.47;11.00;;;;;;;;;;5065138;28;20181;-71
2021/04/30 01:59:15;;;;;;;12.53;11.30;;;;;;;;;;5064168;28;20254;-70
2021/04/30 02:01:43;;;;;;;12.83;11.53;;;;;;;;;;5059522;28;20181;-71
2021/04/30 02:04:11;;;;;;;12.67;11.37;;;;;;;;;;5061736;28;20339;-71
2021/04/30 02:06:36;;;;;;;12.57;11.37;;;;;;;;;;5044729;28;20223;-71
2021/04/30 02:09:02;;;;;;;12.43;11.23;;;;;;;;;;5061261;28;20185;-71
2021/04/30 02:11:27;;;;;;;12.70;11.40;;;;;;;;;;5064428;28;20246;-71
2021/04/30 02:13:55;;;;;;;12.53;11.27;;;;;;;;;;5063535;28;20198;-71
2021/04/30 02:16:20;;;;;;;12.90;11.60;;;;;;;;;;5061870;28;20218;-70
2021/04/30 02:18:45;;;;;;;14.10;12.70;;;;;;;;;;5059025;28;20189;-70
2021/04/30 02:21:10;;;;;;;12.73;11.43;;;;;;;;;;5060618;28;20658;-70
2021/04/30 02:23:35;;;;;;;12.27;11.07;;;;;;;;;;5060734;28;20293;-71
2021/04/30 02:26:00;;;;;;;12.87;11.57;;;;;;;;;;5064902;28;20166;-71
2021/04/30 02:28:26;;;;;;;12.65;11.43;;;;;;;;;;5062444;28;20557;-71
2021/04/30 02:30:51;;;;;;;13.27;11.33;;;;;;;;;;5047313;28;20238;-71
2021/04/30 02:33:16;;;;;;;11.80;10.70;;;;;;;;;;5065472;28;20217;-71
2021/04/30 02:35:43;;;;;;;11.77;10.57;;;;;;;;;;5051897;28;20188;-72
2021/04/30 02:38:09;;;;;;;12.20;10.90;;;;;;;;;;5058723;28;20753;-71
2021/04/30 02:40:35;;;;;;;11.63;10.43;;;;;;;;;;5065263;28;20201;-71
2021/04/30 02:43:02;;;;;;;11.43;10.33;;;;;;;;;;5065489;28;20336;-71
2021/04/30 02:45:28;;;;;;;12.63;11.33;;;;;;;;;;5038112;28;20178;-72
2021/04/30 02:47:53;;;;;;;12.80;11.60;;;;;;;;;;5061474;28;20185;-71
2021/04/30 02:50:20;;;;;;;13.37;11.77;;;;;;;;;;5046880;28;20185;-71
2021/04/30 02:52:50;;;;;;;12.80;11.50;;;;;;;;;;5043973;28;20259;-69
2021/04/30 02:55:17;;;;;;;12.43;11.20;;;;;;;;;;5062105;28;20672;-69
2021/04/30 02:57:42;;;;;;;11.53;10.33;;;;;;;;;;5069539;28;20189;-71
2021/04/30 03:00:08;;;;;;;12.50;11.23;;;;;;;;;;5067199;28;20303;-71
2021/04/30 03:02:34;;;;;;;11.93;10.70;;;;;;;;;;5070244;28;20200;-70
2021/04/30 03:04:59;;;;;;;12.40;11.20;;;;;;;;;;5071939;28;20177;-70
2021/04/30 03:07:26;;;;;;;12.00;10.70;;;;;;;;;;5069466;28;20181;-71
2021/04/30 03:09:51;;;;;;;11.43;10.23;;;;;;;;;;5049284;28;20641;-70
2021/04/30 03:12:17;;;;;;;12.23;10.93;;;;;;;;;;5066647;28;20216;-70
2021/04/30 03:14:44;;;;;;;12.00;10.80;;;;;;;;;;5065468;28;20546;-69
2021/04/30 03:17:09;;;;;;;11.50;10.33;;;;;;;;;;5064152;28;20191;-71
2021/04/30 03:19:35;;;;;;;12.90;11.10;;;;;;;;;;5059816;28;20201;-71
2021/04/30 03:22:00;;;;;;;12.30;11.00;;;;;;;;;;5048825;28;20668;-71
2021/04/30 03:24:25;;;;;;;13.67;11.60;;;;;;;;;;5067168;28;20213;-71
2021/04/30 03:26:50;;;;;;;14.90;12.70;;;;;;;;;;5063531;28;20179;-71
2021/04/30 03:29:15;;;;;;;15.13;13.57;;;;;;;;;;5059584;28;20182;-70
2021/04/30 03:31:41;;;;;;;13.90;12.40;;;;;;;;;;5062375;28;20790;-71
2021/04/30 03:34:06;;;;;;;15.83;13.17;;;;;;;;;;5063045;28;20212;-69
2021/04/30 03:36:32;;;;;;;16.83;13.40;;;;;;;;;;5052736;28;20181;-71
2021/04/30 03:38:59;;;;;;;14.20;12.37;;;;;;;;;;5064276;28;20715;-70
2021/04/30 03:41:25;;;;;;;13.47;12.07;;;;;;;;;;5065941;28;20177;-72
2021/04/30 03:43:53;;;;;;;14.23;12.73;;;;;;;;;;5051026;28;20663;-70
2021/04/30 03:46:18;;;;;;;15.90;13.87;;;;;;;;;;5066142;28;20182;-70
2021/04/30 03:48:43;;;;;;;18.47;13.97;;;;;;;;;;5059139;28;20204;-72
2021/04/30 03:51:08;;;;;;;16.03;13.93;;;;;;;;;;5069244;28;20182;-71
2021/04/30 03:53:33;;;;;;;16.30;14.40;;;;;;;;;;5056770;28;20189;-71
2021/04/30 03:55:59;;;;;;;21.57;14.57;;;;;;;;;;5065290;28;20272;-71
2021/04/30 03:58:24;;;;;;;18.40;15.83;;;;;;;;;;5065618;28;20181;-71
2021/04/30 04:00:49;;;;;;;20.60;16.63;;;;;;;;;;5064990;28;20677;-71
2021/04/30 04:03:14;;;;;;;21.13;17.90;;;;;;;;;;5060006;28;20204;-71
2021/04/30 04:05:39;;;;;;;24.88;17.27;;;;;;;;;;5066626;28;20663;-70
2021/04/30 04:08:08;;;;;;;24.57;18.30;;;;;;;;;;5060969;28;20192;-71
2021/04/30 04:10:33;;;;;;;23.33;17.67;;;;;;;;;;5064485;28;20197;-72
2021/04/30 04:12:58;;;;;;;19.37;17.03;;;;;;;;;;5048109;28;20632;-70
2021/04/30 04:15:23;;;;;;;22.50;17.80;;;;;;;;;;5069536;28;20181;-70
2021/04/30 04:17:48;;;;;;;20.57;17.37;;;;;;;;;;5069403;28;20204;-71
2021/04/30 04:20:14;;;;;;;19.63;17.20;;;;;;;;;;5066692;28;20193;-69
2021/04/30 04:22:39;;;;;;;22.67;18.07;;;;;;;;;;5066759;28;20727;-70
2021/04/30 04:25:05;;;;;;;21.57;18.43;;;;;;;;;;5050260;28;20243;-71
2021/04/30 04:27:30;;;;;;;22.90;18.17;;;;;;;;;;5063699;28;20186;-72
2021/04/30 04:29:55;;;;;;;22.43;18.20;;;;;;;;;;5063265;28;20178;-72
2021/04/30 04:32:20;;;;;;;22.80;18.83;;;;;;;;;;5062962;28;20181;-70
2021/04/30 04:34:46;;;;;;;20.35;17.40;;;;;;;;;;5059972;28;20281;-69
2021/04/30 04:37:11;;;;;;;21.27;18.53;;;;;;;;;;5059980;28;20185;-71
2021/04/30 04:39:38;;;;;;;21.77;17.93;;;;;;;;;;5065704;28;20205;-71
2021/04/30 04:42:04;;;;;;;21.30;17.90;;;;;;;;;;5065861;28;20513;-71
2021/04/30 04:44:29;;;;;;;21.97;19.03;;;;;;;;;;5062363;28;20209;-71
2021/04/30 04:46:55;;;;;;;21.20;18.67;;;;;;;;;;5064068;28;20655;-71
2021/04/30 04:49:20;;;;;;;20.80;18.57;;;;;;;;;;5064572;28;20775;-71
2021/04/30 04:51:46;;;;;;;22.70;18.70;;;;;;;;;;5063739;28;20792;-70
2021/04/30 04:54:11;;;;;;;22.33;18.77;;;;;;;;;;5060788;28;20213;-69
2021/04/30 04:56:36;;;;;;;20.53;18.07;;;;;;;;;;5061004;28;20550;-71
2021/04/30 04:59:02;;;;;;;21.83;18.33;;;;;;;;;;5060759;28;20183;-71
2021/04/30 05:01:28;;;;;;;20.87;18.13;;;;;;;;;;5065038;28;20177;-73
2021/04/30 05:03:53;;;;;;;22.23;18.83;;;;;;;;;;5064711;28;20193;-71
2021/04/30 05:06:18;;;;;;;20.83;18.27;;;;;;;;;;5065793;28;20212;-72
2021/04/30 05:08:43;;;;;;;21.73;18.07;;;;;;;;;;5065151;28;20186;-72
2021/04/30 05:11:09;;;;;;;21.70;19.00;;;;;;;;;;5054963;28;20182;-71
2021/04/30 05:13:34;;;;;;;23.60;18.67;;;;;;;;;;5067677;28;20223;-71
2021/04/30 05:16:00;;;;;;;21.30;19.00;;;;;;;;;;5065480;28;20192;-71
2021/04/30 05:18:25;;;;;;;20.63;17.97;;;;;;;;;;5046945;28;20182;-69
2021/04/30 05:20:51;;;;;;;20.93;17.47;;;;;;;;;;5066079;28;20209;-72
2021/04/30 05:23:16;;;;;;;22.90;19.60;;;;;;;;;;5064480;28;20636;-71
2021/04/30 05:25:42;;;;;;;25.03;20.27;;;;;;;;;;5058296;28;20243;-71
2021/04/30 05:28:07;;;;;;;22.10;19.20;;;;;;;;;;5061260;28;20764;-71
2021/04/30 05:30:33;;;;;;;22.63;19.97;;;;;;;;;;5065761;28;20227;-71
2021/04/30 05:32:58;;;;;;;21.63;19.30;;;;;;;;;;5047653;28;20350;-70
2021/04/30 05:35:23;;;;;;;23.60;19.37;;;;;;;;;;5059350;28;20189;-71
2021/04/30 05:37:48;;;;;;;22.63;19.80;;;;;;;;;;5060336;28;20236;-71
2021/04/30 05:40:13;;;;;;;21.50;19.10;;;;;;;;;;5066518;28;20331;-70
2021/04/30 05:42:39;;;;;;;24.40;19.77;;;;;;;;;;5055576;28;21124;-72
2021/04/30 05:45:04;;;;;;;24.63;20.57;;;;;;;;;;5057515;28;20178;-71
2021/04/30 05:47:29;;;;;;;23.53;19.73;;;;;;;;;;5055049;28;20189;-71
2021/04/30 05:49:55;;;;;;;25.20;20.47;;;;;;;;;;5054536;28;20196;-71
2021/04/30 05:52:20;;;;;;;21.67;19.17;;;;;;;;;;5064422;28;20189;-70
2021/04/30 05:54:45;;;;;;;22.63;20.03;;;;;;;;;;5056156;28;20178;-71
2021/04/30 05:57:10;;;;;;;22.73;18.70;;;;;;;;;;5053746;28;20206;-72
2021/04/30 05:59:38;;;;;;;20.67;18.47;;;;;;;;;;5059852;28;20204;-72
2021/04/30 06:02:03;;;;;;;20.47;17.47;;;;;;;;;;5062647;28;20660;-72
2021/04/30 06:04:28;;;;;;;24.77;19.80;;;;;;;;;;5054557;28;20210;-71
2021/04/30 06:06:54;;;;;;;21.93;19.27;;;;;;;;;;5044697;28;20275;-71
2021/04/30 06:09:19;;;;;;;22.53;19.37;;;;;;;;;;5065877;28;20181;-71
2021/04/30 06:11:45;;;;;;;22.53;18.43;;;;;;;;;;5043441;28;20185;-72
2021/04/30 06:14:11;;;;;;;20.93;18.67;;;;;;;;;;5060647;28;20217;-72
2021/04/30 06:16:36;;;;;;;20.93;17.63;;;;;;;;;;5063682;28;20194;-71
2021/04/30 06:19:02;;;;;;;21.17;17.77;;;;;;;;;;5058260;28;20235;-70
2021/04/30 06:21:27;;;;;;;24.03;18.63;;;;;;;;;;5060143;28;20628;-71
2021/04/30 06:23:52;;;;;;;23.63;17.13;;;;;;;;;;5058444;28;20244;-71
2021/04/30 06:26:17;;;;;;;25.20;18.97;;;;;;;;;;5060046;28;20177;-72
2021/04/30 06:28:43;;;;;;;23.10;18.87;;;;;;;;;;5066191;28;20257;-71
2021/04/30 06:31:08;;;;;;;20.90;18.23;;;;;;;;;;5064880;28;20193;-70
2021/04/30 06:33:33;;;;;;;24.30;19.53;;;;;;;;;;5058631;28;20280;-72
2021/04/30 06:35:59;;;;;;;26.43;19.50;;;;;;;;;;5066460;28;20197;-71
2021/04/30 06:38:24;;;;;;;25.97;19.07;;;;;;;;;;5059287;28;20299;-72
2021/04/30 06:40:49;;;;;;;24.27;19.93;;;;;;;;;;5066259;28;20283;-73
2021/04/30 06:43:15;;;;;;;22.17;18.90;;;;;;;;;;5060692;28;20237;-72
2021/04/30 06:45:40;;;;;;;25.03;21.07;;;;;;;;;;5063759;28;20304;-72
2021/04/30 06:48:05;;;;;;;23.43;20.10;;;;;;;;;;5058219;28;20185;-72
2021/04/30 06:50:30;;;;;;;23.53;20.10;;;;;;;;;;5056376;28;20219;-72
2021/04/30 06:52:58;;;;;;;25.13;20.43;;;;;;;;;;5052270;28;20213;-70
2021/04/30 06:55:26;;;;;;;26.93;21.03;;;;;;;;;;5055245;28;20213;-73
2021/04/30 06:57:53;;;;;;;29.13;21.67;;;;;;;;;;5054601;28;20188;-72
2021/04/30 07:00:19;;;;;;;27.13;21.23;;;;;;;;;;5057274;28;20570;-71
2021/04/30 07:02:44;;;;;;;25.03;19.80;;;;;;;;;;5048530;28;20197;-73
2021/04/30 07:05:10;;;;;;;21.13;18.77;;;;;;;;;;5059252;28;20188;-72
2021/04/30 07:07:35;;;;;;;23.87;18.50;;;;;;;;;;5054806;28;20182;-70
2021/04/30 07:10:01;;;;;;;22.70;20.23;;;;;;;;;;5055397;28;20890;-70
2021/04/30 07:12:26;;;;;;;24.23;21.27;;;;;;;;;;5054181;28;20197;-70
2021/04/30 07:14:51;;;;;;;28.47;23.77;;;;;;;;;;5036834;28;20185;-72
2021/04/30 07:17:16;;;;;;;26.70;23.43;;;;;;;;;;5056603;28;20191;-71
2021/04/30 07:19:41;;;;;;;29.40;26.20;;;;;;;;;;5056432;28;20205;-71
2021/04/30 07:22:11;;;;;;;30.63;26.13;;;;;;;;;;5056683;28;20189;-70
2021/04/30 07:24:36;;;;;;;29.97;25.77;;;;;;;;;;5057738;28;20197;-72
2021/04/30 07:27:04;;;;;;;28.80;25.63;;;;;;;;;;5056629;28;20178;-72
2021/04/30 07:29:29;;;;;;;27.73;24.33;;;;;;;;;;5057462;28;20644;-72
2021/04/30 07:31:56;;;;;;;30.97;27.07;;;;;;;;;;5053827;28;20228;-72
2021/04/30 07:34:21;;;;;;;34.40;27.40;;;;;;;;;;5051651;28;20217;-72
2021/04/30 07:36:46;;;;;;;33.07;26.33;;;;;;;;;;5053227;28;20193;-72
2021/04/30 07:39:11;;;;;;;27.50;24.53;;;;;;;;;;5058187;28;20729;-71
2021/04/30 07:41:36;;;;;;;31.13;25.57;;;;;;;;;;5058873;28;20181;-71
2021/04/30 07:44:01;;;;;;;30.87;26.30;;;;;;;;;;5058354;28;20211;-72
2021/04/30 07:46:29;;;;;;;30.27;25.97;;;;;;;;;;5059022;28;20189;-69
2021/04/30 07:48:54;;;;;;;28.30;24.63;;;;;;;;;;5041552;28;20187;-71
2021/04/30 07:51:19;;;;;;;28.67;25.33;;;;;;;;;;5058209;28;20185;-70
2021/04/30 07:53:44;;;;;;;28.35;24.92;;;;;;;;;;5055404;28;20731;-72
2021/04/30 07:56:09;;;;;;;29.33;24.73;;;;;;;;;;5041920;28;20203;-71
2021/04/30 07:58:37;;;;;;;29.23;25.17;;;;;;;;;;5055884;28;20659;-71
2021/04/30 08:01:03;;;;;;;26.47;23.40;;;;;;;;;;5061240;28;20201;-70
2021/04/30 08:03:30;;;;;;;29.27;25.73;;;;;;;;;;5061508;28;20216;-70
2021/04/30 08:05:58;;;;;;;27.97;24.97;;;;;;;;;;5061703;28;20177;-72
2021/04/30 08:08:23;;;;;;;29.67;24.27;;;;;;;;;;5061962;28;20181;-71
2021/04/30 08:10:50;;;;;;;27.10;23.97;;;;;;;;;;5063676;28;20547;-72
2021/04/30 08:13:16;;;;;;;29.03;26.03;;;;;;;;;;5058583;28;20220;-70
2021/04/30 08:15:41;;;;;;;27.90;24.73;;;;;;;;;;5062700;28;20181;-70
2021/04/30 08:18:07;;;;;;;28.07;24.33;;;;;;;;;;5045926;28;20193;-71
2021/04/30 08:20:32;;;;;;;27.47;24.20;;;;;;;;;;5063730;28;20205;-71
2021/04/30 08:22:58;;;;;;;29.63;24.37;;;;;;;;;;5061838;28;21055;-70
2021/04/30 08:25:24;;;;;;;27.47;24.50;;;;;;;;;;5046153;28;20197;-70
2021/04/30 08:27:49;;;;;;;26.33;23.53;;;;;;;;;;5062343;28;20181;-69
2021/04/30 08:30:17;;;;;;;27.00;23.90;;;;;;;;;;5062389;28;20645;-68
2021/04/30 08:32:42;;;;;;;27.37;23.50;;;;;;;;;;5061756;28;20741;-69
2021/04/30 08:35:07;;;;;;;26.13;23.30;;;;;;;;;;5063136;28;20178;-69
2021/04/30 08:37:33;;;;;;;26.50;23.60;;;;;;;;;;5062160;28;20190;-70
2021/04/30 08:40:01;;;;;;;26.77;23.57;;;;;;;;;;5065296;28;20201;-70
2021/04/30 08:42:27;;;;;;;26.47;21.67;;;;;;;;;;5066469;28;20185;-70
2021/04/30 08:44:52;;;;;;;26.83;23.17;;;;;;;;;;5063541;28;20649;-71
2021/04/30 08:47:18;;;;;;;23.60;21.20;;;;;;;;;;5068742;28;20189;-72
2021/04/30 08:49:44;;;;;;;23.83;21.17;;;;;;;;;;5063973;28;20210;-70
2021/04/30 08:52:10;;;;;;;23.77;21.27;;;;;;;;;;5043253;28;20178;-70
2021/04/30 08:54:37;;;;;;;25.70;22.80;;;;;;;;;;5064095;28;20296;-71
2021/04/30 08:57:05;;;;;;;25.10;21.33;;;;;;;;;;5049464;28;20267;-70
2021/04/30 08:59:30;;;;;;;25.33;21.60;;;;;;;;;;5061068;28;20665;-72
2021/04/30 09:01:55;;;;;;;26.00;23.07;;;;;;;;;;5064998;28;20180;-69
2021/04/30 09:04:20;;;;;;;23.20;20.70;;;;;;;;;;5064735;28;20228;-70
2021/04/30 09:06:46;;;;;;;22.97;20.53;;;;;;;;;;5066202;28;20197;-70
2021/04/30 09:09:17;;;;;;;23.48;21.00;;;;;;;;;;5067604;28;20652;-71
2021/04/30 09:11:45;;;;;;;24.40;21.80;;;;;;;;;;5058489;28;20189;-71
2021/04/30 09:14:23;;;;;;;24.87;21.90;;;;;;;;;;5042377;28;20197;-70
2021/04/30 09:17:05;;;;;;;24.07;21.67;;;;;;;;;;5080897;23;20236;-51
2021/04/30 09:19:34;;;;;;;23.07;20.33;;;;;;;;;;5083362;28;20579;-51
2021/04/30 09:22:01;;;;;;;21.13;18.83;;;;;;;;;;5084703;28;20689;-51
2021/04/30 09:24:28;;;;;;;23.00;19.17;;;;;;;;;;5080886;28;20183;-51
2021/04/30 09:26:57;;;;;;;22.17;19.53;;;;;;;;;;5083068;28;20185;-51
2021/04/30 09:29:29;;;;;;;21.87;19.57;;;;;;;;;;5085767;28;20188;-52
2021/04/30 09:31:54;;;;;;;22.60;19.97;;;;;;;;;;5065761;28;20219;-51
2021/04/30 09:34:29;;;;;;;21.30;19.13;;;;;;;;;;5083339;28;20724;-50
2021/04/30 09:36:58;;;;;;;20.80;18.70;;;;;;;;;;5078043;28;20191;-51
2021/04/30 09:39:26;;;;;;;20.67;18.47;;;;;;;;;;5081373;28;20247;-51
2021/04/30 09:42:05;;;;;;;20.37;18.23;;;;;;;;;;5087506;28;20199;-51
2021/04/30 09:44:35;;;;;;;21.93;18.07;;;;;;;;;;5087151;28;20181;-52
2021/04/30 09:47:10;;;;;;;19.90;17.80;;;;;;;;;;5082782;28;20219;-52
2021/04/30 09:49:38;;;;;;;19.10;17.10;;;;;;;;;;5082858;28;20184;-51
2021/04/30 09:52:08;;;;;;;18.90;17.00;;;;;;;;;;5068152;28;20222;-51
2021/04/30 09:54:37;;;;;;;18.40;16.47;;;;;;;;;;5083834;28;20169;-51
2021/04/30 09:57:02;;;;;;;19.30;17.17;;;;;;;;;;5079839;28;20185;-52
2021/04/30 09:59:28;;;;;;;18.10;16.30;;;;;;;;;;5066452;28;20667;-52
2021/04/30 10:02:12;;;;;;;21.03;17.43;;;;;;;;;;5066388;28;20569;-53
2021/04/30 10:04:39;;;;;;;17.40;15.60;;;;;;;;;;5085845;28;20598;-50
2021/04/30 10:07:06;;;;;;;18.87;16.97;;;;;;;;;;5083039;28;20173;-52
2021/04/30 10:09:34;;;;;;;16.40;14.80;;;;;;;;;;5081105;28;20184;-51
2021/04/30 10:12:16;;;;;;;17.07;15.30;;;;;;;;;;5081359;28;20215;-53
2021/04/30 10:14:44;;;;;;;17.10;15.30;;;;;;;;;;5085110;28;20264;-52
2021/04/30 10:17:14;;;;;;;15.87;14.37;;;;;;;;;;5064993;28;20218;-53
2021/04/30 10:19:41;;;;;;;14.87;13.47;;;;;;;;;;5082930;28;20206;-53
2021/04/30 10:22:08;;;;;;;17.67;15.23;;;;;;;;;;5062687;28;20239;-52
2021/04/30 10:24:39;;;;;;;15.80;14.07;;;;;;;;;;5083463;28;20567;-53
2021/04/30 10:27:09;;;;;;;14.17;12.70;;;;;;;;;;5085662;28;20725;-53
2021/04/30 10:29:38;;;;;;;17.10;15.43;;;;;;;;;;5081961;28;20179;-52
2021/04/30 10:32:05;;;;;;;16.03;14.50;;;;;;;;;;5084479;28;20223;-53
2021/04/30 10:34:32;;;;;;;14.87;13.47;;;;;;;;;;5083072;28;20177;-52
2021/04/30 10:37:03;;;;;;;15.93;14.33;;;;;;;;;;5084751;28;20196;-51
2021/04/30 10:39:35;;;;;;;14.97;13.47;;;;;;;;;;5083501;28;20233;-51
2021/04/30 10:42:12;;;;;;;15.20;13.60;;;;;;;;;;5082972;28;20237;-53
2021/04/30 10:44:41;;;;;;;14.23;12.87;;;;;;;;;;5060707;28;20184;-50
2021/04/30 10:47:15;;;;;;;15.37;13.83;;;;;;;;;;5080625;28;20293;-51
2021/04/30 10:49:43;;;;;;;15.07;13.67;;;;;;;;;;5084255;28;20725;-52
2021/04/30 10:52:23;;;;;;;15.23;13.63;;;;;;;;;;5081151;28;20670;-52
2021/04/30 10:55:05;;;;;;;14.33;12.90;;;;;;;;;;5080448;28;20237;-52
2021/04/30 10:57:45;;;;;;;14.67;13.07;;;;;;;;;;5080280;28;20203;-54
2021/04/30 11:00:11;;;;;;;13.50;12.20;;;;;;;;;;5056441;28;20283;-52
2021/04/30 11:02:38;;;;;;;14.63;12.67;;;;;;;;;;5083164;28;20264;-52
2021/04/30 11:05:03;;;;;;;11.70;10.50;;;;;;;;;;5082997;28;20509;-50
2021/04/30 11:07:50;;;;;;;12.50;11.27;;;;;;;;;;5063105;28;20196;-53
2021/04/30 11:10:30;;;;;;;11.70;9.53;;;;;;;;;;5079015;28;20718;-52
2021/04/30 11:12:58;;;;;;;13.37;12.07;;;;;;;;;;5077983;28;20546;-52
2021/04/30 11:15:24;;;;;;;13.83;12.53;;;;;;;;;;5084546;28;20241;-52
2021/04/30 11:17:54;;;;;;;13.77;12.40;;;;;;;;;;5083499;28;20803;-51
2021/04/30 11:20:21;;;;;;;13.97;12.67;;;;;;;;;;5085641;28;20204;-52
2021/04/30 11:23:07;;;;;;;13.17;11.90;;;;;;;;;;5082481;28;20730;-53
2021/04/30 11:25:52;;;;;;;13.80;12.40;;;;;;;;;;5084054;28;20245;-51
2021/04/30 11:28:20;;;;;;;12.93;11.73;;;;;;;;;;5075412;28;20663;-51
2021/04/30 11:30:58;;;;;;;14.60;12.50;;;;;;;;;;5082730;28;20270;-53
2021/04/30 11:33:26;;;;;;;13.30;12.10;;;;;;;;;;5086025;28;20222;-52
2021/04/30 11:35:55;;;;;;;13.97;12.67;;;;;;;;;;5083209;28;20185;-53
2021/04/30 11:38:39;;;;;;;12.17;10.97;;;;;;;;;;5077245;28;20699;-53
2021/04/30 11:41:05;;;;;;;12.57;11.27;;;;;;;;;;5084565;28;20288;-52
2021/04/30 11:43:31;;;;;;;11.77;10.67;;;;;;;;;;5084412;28;20193;-52
2021/04/30 11:45:59;;;;;;;13.13;11.60;;;;;;;;;;5082886;28;20183;-51
2021/04/30 11:48:24;;;;;;;11.70;10.47;;;;;;;;;;5082846;28;20186;-51
2021/04/30 11:51:02;;;;;;;11.87;10.63;;;;;;;;;;5083786;28;20176;-51
2021/04/30 11:53:30;;;;;;;11.77;10.67;;;;;;;;;;5083370;28;20651;-51
2021/04/30 11:56:08;;;;;;;12.53;11.20;;;;;;;;;;5066298;28;20295;-51
2021/04/30 11:58:38;;;;;;;12.80;11.50;;;;;;;;;;5082494;28;20177;-51
2021/04/30 12:01:11;;;;;;;11.97;10.77;;;;;;;;;;5087359;28;20196;-50
2021/04/30 12:03:52;;;;;;;12.03;10.93;;;;;;;;;;5052987;28;20692;-52
2021/04/30 12:06:20;;;;;;;11.63;10.53;;;;;;;;;;5085285;28;20243;-51
2021/04/30 12:08:48;;;;;;;11.70;10.60;;;;;;;;;;5058962;28;20199;-50
2021/04/30 12:11:33;;;;;;;11.23;10.13;;;;;;;;;;5069002;28;20208;-50
2021/04/30 12:14:02;;;;;;;10.90;9.80;;;;;;;;;;5085017;28;20188;-51
2021/04/30 12:16:27;;;;;;;11.90;10.57;;;;;;;;;;5060444;28;20186;-50
2021/04/30 12:18:54;;;;;;;10.97;9.97;;;;;;;;;;5064339;28;20177;-52
2021/04/30 12:21:38;;;;;;;10.97;9.63;;;;;;;;;;5070997;28;20220;-52
2021/04/30 12:24:06;;;;;;;11.63;10.43;;;;;;;;;;5086253;28;20179;-52
2021/04/30 12:26:33;;;;;;;11.93;10.73;;;;;;;;;;5082508;28;20183;-53
2021/04/30 12:29:01;;;;;;;11.43;10.33;;;;;;;;;;5082162;28;20280;-51
2021/04/30 12:31:29;;;;;;;11.07;10.07;;;;;;;;;;5085038;28;20218;-50
2021/04/30 12:33:56;;;;;;;10.90;9.57;;;;;;;;;;5081679;28;20323;-52
2021/04/30 12:36:28;;;;;;;10.87;9.87;;;;;;;;;;5062546;28;20176;-51
2021/04/30 12:38:57;;;;;;;11.73;10.63;;;;;;;;;;5081920;28;20249;-51
2021/04/30 12:41:25;;;;;;;11.17;9.97;;;;;;;;;;5063725;28;20781;-52
2021/04/30 12:43:54;;;;;;;12.30;11.00;;;;;;;;;;5082142;28;20319;-51
2021/04/30 12:46:22;;;;;;;13.33;10.93;;;;;;;;;;5080955;28;20189;-52
2021/04/30 12:48:57;;;;;;;12.00;10.90;;;;;;;;;;5065295;28;20192;-52
2021/04/30 12:51:26;;;;;;;15.27;13.77;;;;;;;;;;5089058;28;20207;-52
2021/04/30 12:53:59;;;;;;;15.90;14.27;;;;;;;;;;5064501;28;20617;-52
2021/04/30 12:56:32;;;;;;;15.43;13.83;;;;;;;;;;5083467;28;20188;-52
2021/04/30 12:59:13;;;;;;;16.83;15.07;;;;;;;;;;5066685;28;20196;-53
2021/04/30 13:01:48;;;;;;;16.30;14.70;;;;;;;;;;5081169;28;20235;-52
2021/04/30 13:04:16;;;;;;;17.07;15.30;;;;;;;;;;5083785;28;20556;-50
2021/04/30 13:06:41;;;;;;;17.37;15.57;;;;;;;;;;5083048;28;20536;-51
2021/04/30 13:09:07;;;;;;;16.13;14.07;;;;;;;;;;5080734;28;20196;-52
2021/04/30 13:11:33;;;;;;;15.63;13.87;;;;;;;;;;5082969;28;20197;-50
2021/04/30 13:14:02;;;;;;;17.70;15.70;;;;;;;;;;5084722;28;20192;-51
2021/04/30 13:16:48;;;;;;;16.83;15.07;;;;;;;;;;5083045;28;20272;-52
2021/04/30 13:19:15;;;;;;;15.50;13.43;;;;;;;;;;5084303;28;20691;-49
2021/04/30 13:21:47;;;;;;;16.10;14.40;;;;;;;;;;5082328;28;20677;-54
2021/04/30 13:24:18;;;;;;;16.10;14.40;;;;;;;;;;5085175;28;20165;-52
2021/04/30 13:27:05;;;;;;;15.70;14.10;;;;;;;;;;5064209;28;20185;-52
2021/04/30 13:29:32;;;;;;;14.70;13.27;;;;;;;;;;5081235;28;20180;-52
2021/04/30 13:32:10;;;;;;;14.20;12.73;;;;;;;;;;5080488;28;20208;-51
2021/04/30 13:34:44;;;;;;;14.53;13.03;;;;;;;;;;5080238;28;20221;-52
2021/04/30 13:37:10;;;;;;;14.00;12.50;;;;;;;;;;5081870;28;20264;-50
2021/04/30 13:39:37;;;;;;;15.30;13.73;;;;;;;;;;5081213;28;20181;-52
2021/04/30 13:42:03;;;;;;;14.23;12.50;;;;;;;;;;5063328;28;20226;-52
2021/04/30 13:44:30;;;;;;;14.83;13.23;;;;;;;;;;5081416;28;20185;-51
2021/04/30 13:46:57;;;;;;;13.93;12.53;;;;;;;;;;5076154;28;20334;-51
2021/04/30 13:49:41;;;;;;;14.47;12.97;;;;;;;;;;5086205;28;20180;-53
2021/04/30 13:52:06;;;;;;;15.17;13.57;;;;;;;;;;5083214;28;20786;-52
2021/04/30 13:54:36;;;;;;;14.40;12.77;;;;;;;;;;5084972;28;20232;-52
2021/04/30 13:57:01;;;;;;;13.57;12.27;;;;;;;;;;5081565;28;20602;-51
2021/04/30 13:59:33;;;;;;;12.67;11.33;;;;;;;;;;5086585;28;20208;-51
2021/04/30 14:01:59;;;;;;;13.03;10.33;;;;;;;;;;5079113;28;20208;-50
2021/04/30 14:04:26;;;;;;;11.80;10.60;;;;;;;;;;5084670;28;20173;-52
2021/04/30 14:06:54;;;;;;;11.77;10.57;;;;;;;;;;5081631;28;20591;-51
2021/04/30 14:09:24;;;;;;;12.07;10.87;;;;;;;;;;5084127;28;20208;-51
2021/04/30 14:11:49;;;;;;;12.67;11.30;;;;;;;;;;5064257;28;20226;-51
2021/04/30 14:14:16;;;;;;;12.20;10.63;;;;;;;;;;5083724;28;20177;-52
2021/04/30 14:16:43;;;;;;;8.40;7.60;;;;;;;;;;5074522;28;20181;-52
2021/04/30 14:19:08;;;;;;;8.50;7.70;;;;;;;;;;5083878;28;20238;-52